createdAt,value
2023-03-18T00:01:39.875Z,98999.63
2023-03-18T00:04:09.686Z,98995.72
2023-03-18T00:06:40.541Z,99013.19
2023-03-18T00:09:11.466Z,98993.34
2023-03-18T00:11:41.838Z,99012.63
2023-03-18T00:14:11.236Z,99001.44
2023-03-18T00:16:40.829Z,99013.16
2023-03-18T00:19:09.870Z,99015.75
2023-03-18T00:21:40.355Z,99011.56
2023-03-18T00:24:09.761Z,99014.41
2023-03-18T00:26:41.790Z,99007.63
2023-03-18T00:29:11.216Z,99012.06
2023-03-18T00:31:40.299Z,99022.47
2023-03-18T00:34:12.373Z,99020.91
2023-03-18T00:36:45.725Z,99031.34
2023-03-18T00:39:14.734Z,99024.56
2023-03-18T00:41:43.739Z,99027.19
2023-03-18T00:44:14.882Z,99032.41
2023-03-18T00:46:43.969Z,99037.06
2023-03-18T00:49:13.151Z,99037.06
2023-03-18T00:51:43.126Z,99042.28
2023-03-18T00:54:18.127Z,99042.28
2023-03-18T00:56:47.743Z,99042.28
2023-03-18T00:59:16.777Z,99047.50
2023-03-18T01:01:46.760Z,99026.09
2023-03-18T01:04:18.723Z,99031.31
2023-03-18T01:06:48.475Z,99033.13
2023-03-18T01:09:18.793Z,99027.13
2023-03-18T01:11:47.872Z,99018.78
2023-03-18T01:14:20.139Z,99026.59
2023-03-18T01:16:49.278Z,99018.22
2023-03-18T01:19:20.015Z,99028.66
2023-03-18T01:21:50.031Z,99027.84
2023-03-18T01:24:22.523Z,99021.09
2023-03-18T01:26:52.092Z,99022.91
2023-03-18T01:29:23.446Z,99028.09
2023-03-18T01:31:52.811Z,99029.16
2023-03-18T01:34:22.322Z,99028.09
2023-03-18T01:36:57.668Z,99026.53
2023-03-18T01:39:31.185Z,99032.56
2023-03-18T01:42:00.198Z,99028.09
2023-03-18T01:44:34.586Z,99031.50
2023-03-18T01:47:04.750Z,99029.94
2023-03-18T01:49:38.698Z,99036.97
2023-03-18T01:52:15.555Z,99033.31
2023-03-18T01:54:52.405Z,99036.22
2023-03-18T01:57:22.752Z,99032.81
2023-03-18T01:59:54.571Z,99033.84
2023-03-18T02:02:24.154Z,99031.25
2023-03-18T02:04:55.562Z,99034.84
2023-03-18T02:07:30.968Z,99030.44
2023-03-18T02:12:40.690Z,99029.63
2023-03-18T02:15:16.639Z,99028.06
2023-03-18T02:17:55.001Z,99032.25
2023-03-18T02:20:42.267Z,99028.31
2023-03-18T02:23:27.487Z,99021.53
2023-03-18T02:26:06.888Z,99011.88
2023-03-18T02:28:38.644Z,98995.47
2023-03-18T02:31:13.088Z,98994.91
2023-03-18T02:33:44.786Z,98999.38
2023-03-18T02:36:20.244Z,99011.13
2023-03-18T02:38:50.201Z,99015.78
2023-03-18T02:41:29.211Z,99012.91
2023-03-18T02:44:02.455Z,99018.09
2023-03-18T02:46:50.447Z,99022.28
2023-03-18T02:49:20.664Z,99023.84
2023-03-18T02:51:51.596Z,99022.84
2023-03-18T02:54:23.710Z,99027.78
2023-03-18T02:56:53.548Z,99028.06
2023-03-18T02:59:25.639Z,99030.66
2023-03-18T03:01:57.222Z,99027.00
2023-03-18T03:04:27.931Z,99034.59
2023-03-18T03:06:59.281Z,99029.59
2023-03-18T03:09:41.928Z,99034.81
2023-03-18T03:12:11.655Z,99033.25
2023-03-18T03:14:50.083Z,99036.63
2023-03-18T03:17:21.950Z,99031.66
2023-03-18T03:19:52.420Z,99038.47
2023-03-18T03:22:24.794Z,99039.25
2023-03-18T03:24:54.295Z,99039.25
2023-03-18T03:27:23.317Z,99037.44
2023-03-18T03:29:54.101Z,99032.22
2023-03-18T03:32:23.531Z,99032.97
2023-03-18T03:34:52.572Z,99041.59
2023-03-18T03:37:21.961Z,99042.41
2023-03-18T03:39:51.528Z,99052.03
2023-03-18T03:42:21.041Z,99052.84
2023-03-18T03:44:50.072Z,99053.59
2023-03-18T03:47:21.337Z,99052.59
2023-03-18T03:49:52.614Z,99049.44
2023-03-18T03:52:21.664Z,99049.66
2023-03-18T03:54:52.058Z,99048.91
2023-03-18T03:57:23.731Z,99055.13
2023-03-18T03:59:52.914Z,99070.25
2023-03-18T04:02:29.249Z,99070.25
2023-03-18T04:04:58.946Z,99065.03
2023-03-18T04:07:32.026Z,99061.63
2023-03-18T04:10:01.708Z,99062.44
2023-03-18T04:12:32.452Z,99066.59
2023-03-18T04:15:03.667Z,99073.63
2023-03-18T04:17:34.632Z,99078.06
2023-03-18T04:20:05.431Z,99075.22
2023-03-18T04:22:36.229Z,99068.16
2023-03-18T04:25:12.029Z,99073.38
2023-03-18T04:27:43.822Z,99070.00
2023-03-18T04:30:15.740Z,99067.16
2023-03-18T04:33:03.567Z,99066.59
2023-03-18T04:35:34.127Z,99066.59
2023-03-18T04:38:03.392Z,99062.94
2023-03-18T04:40:33.242Z,99058.78
2023-03-18T04:43:03.036Z,99060.91
2023-03-18T04:45:32.651Z,99052.53
2023-03-18T04:48:04.430Z,99054.13
2023-03-18T04:50:38.393Z,99059.34
2023-03-18T04:53:10.484Z,99062.94
2023-03-18T04:55:41.797Z,99062.19
2023-03-18T04:58:13.067Z,99051.75
2023-03-18T05:00:51.144Z,99057.75
2023-03-18T05:03:30.033Z,99068.16
2023-03-18T05:05:59.126Z,99068.16
2023-03-18T05:08:38.245Z,99066.59
2023-03-18T05:11:11.203Z,99071.03
2023-03-18T05:13:40.806Z,99067.41
2023-03-18T05:16:12.288Z,99076.22
2023-03-18T05:18:44.730Z,99072.63
2023-03-18T05:21:13.771Z,99077.03
2023-03-18T05:23:42.972Z,99081.44
2023-03-18T05:26:14.951Z,99093.72
2023-03-18T05:28:47.221Z,99088.75
2023-03-18T05:31:45.707Z,99083.78
2023-03-18T05:34:16.270Z,99085.59
2023-03-18T05:36:49.760Z,99078.81
2023-03-18T05:39:19.385Z,99078.00
2023-03-18T05:41:51.680Z,99083.22
2023-03-18T05:44:27.065Z,99085.31
2023-03-18T05:47:02.750Z,99087.91
2023-03-18T05:49:52.876Z,99089.72
2023-03-18T05:52:24.699Z,99082.13
2023-03-18T05:54:56.707Z,99085.31
2023-03-18T05:57:30.733Z,99084.50
2023-03-18T06:00:07.213Z,99082.69
2023-03-18T06:02:46.451Z,99085.31
2023-03-18T06:05:18.224Z,99094.94
2023-03-18T06:07:48.866Z,99087.13
2023-03-18T06:10:18.238Z,99099.34
2023-03-18T06:12:49.356Z,99093.38
2023-03-18T06:15:21.717Z,99095.97
2023-03-18T06:17:52.760Z,99103.00
2023-03-18T06:20:23.675Z,99106.66
2023-03-18T06:22:52.658Z,99101.44
2023-03-18T06:25:25.412Z,99104.28
2023-03-18T06:27:54.732Z,99098.28
2023-03-18T06:30:28.235Z,99098.28
2023-03-18T06:32:57.351Z,99109.50
2023-03-18T06:35:32.986Z,99105.03
2023-03-18T06:38:02.798Z,99109.25
2023-03-18T06:40:34.187Z,99104.81
2023-03-18T06:43:03.632Z,99109.25
2023-03-18T06:45:41.898Z,99113.41
2023-03-18T06:48:11.909Z,99107.16
2023-03-18T06:50:47.777Z,99109.53
2023-03-18T06:53:24.290Z,99110.84
2023-03-18T06:55:57.745Z,99114.25
2023-03-18T06:58:31.808Z,99112.44
2023-03-18T07:01:06.439Z,99113.22
2023-03-18T07:03:40.632Z,99119.22
2023-03-18T07:06:12.607Z,99125.00
2023-03-18T07:08:45.129Z,99120.31
2023-03-18T07:11:14.400Z,99123.47
2023-03-18T07:13:45.369Z,99126.59
2023-03-18T07:16:21.399Z,99129.78
2023-03-18T07:18:53.614Z,99131.91
2023-03-18T07:21:24.010Z,99133.78
2023-03-18T07:23:55.534Z,99132.00
2023-03-18T07:26:27.945Z,99129.97
2023-03-18T07:28:57.049Z,99135.53
2023-03-18T07:31:26.327Z,99143.16
2023-03-18T07:33:55.796Z,99132.28
2023-03-18T07:36:26.907Z,99137.06
2023-03-18T07:38:56.844Z,99144.72
2023-03-18T07:41:26.096Z,99144.00
2023-03-18T07:43:55.095Z,99144.91
2023-03-18T07:46:24.630Z,99146.31
2023-03-18T07:48:53.627Z,99147.94
2023-03-18T07:51:23.132Z,99136.28
2023-03-18T07:53:53.927Z,99139.25
2023-03-18T07:56:22.925Z,99146.63
2023-03-18T07:58:52.910Z,99147.22
2023-03-18T08:01:21.926Z,99137.88
2023-03-18T08:03:51.271Z,99145.81
2023-03-18T08:06:20.776Z,99135.13
2023-03-18T08:08:50.317Z,99148.28
2023-03-18T08:11:20.705Z,99137.03
2023-03-18T08:13:49.714Z,99127.66
2023-03-18T08:16:18.903Z,99135.31
2023-03-18T08:18:47.943Z,99123.50
2023-03-18T08:21:16.943Z,99130.06
2023-03-18T08:23:46.641Z,99134.22
2023-03-18T08:26:15.789Z,99125.03
2023-03-18T08:28:46.242Z,99125.81
2023-03-18T08:31:15.451Z,99130.78
2023-03-18T08:33:47.590Z,99141.22
2023-03-18T08:36:17.292Z,99136.97
2023-03-18T08:38:46.397Z,99135.88
2023-03-18T08:41:17.045Z,99138.97
2023-03-18T08:43:47.596Z,99139.44
2023-03-18T08:46:17.934Z,99132.06
2023-03-18T08:48:47.033Z,99144.06
2023-03-18T08:51:16.948Z,99142.38
2023-03-18T08:53:47.388Z,99144.91
2023-03-18T08:56:17.092Z,99146.38
2023-03-18T08:58:48.287Z,99153.88
2023-03-18T09:01:17.343Z,99152.69
2023-03-18T09:03:46.980Z,99140.47
2023-03-18T09:06:16.334Z,99135.06
2023-03-18T09:08:45.485Z,99134.09
2023-03-18T09:11:14.695Z,99135.53
2023-03-18T09:13:43.703Z,99148.56
2023-03-18T09:16:14.103Z,99144.94
2023-03-18T09:18:45.266Z,99148.75
2023-03-18T09:21:14.982Z,99149.19
2023-03-18T09:23:44.474Z,99140.91
2023-03-18T09:26:13.547Z,99148.44
2023-03-18T09:28:42.579Z,99145.22
2023-03-18T09:31:13.646Z,99140.59
2023-03-18T09:33:43.406Z,99139.69
2023-03-18T09:36:12.684Z,99125.84
2023-03-18T09:38:42.810Z,99125.13
2023-03-18T09:41:30.944Z,99123.03
2023-03-18T09:44:13.774Z,99116.47
2023-03-18T09:47:05.953Z,99111.13
2023-03-18T09:49:53.848Z,99114.97
2023-03-18T09:52:27.274Z,99116.72
2023-03-18T09:55:03.746Z,99115.56
2023-03-18T09:57:42.370Z,99114.47
2023-03-18T10:00:24.450Z,99116.31
2023-03-18T10:03:02.915Z,99126.09
2023-03-18T10:05:36.601Z,99119.81
2023-03-18T10:08:14.646Z,99116.19
2023-03-18T10:10:47.233Z,99116.25
2023-03-18T10:13:22.348Z,99110.06
2023-03-18T10:15:56.743Z,99097.81
2023-03-18T10:18:33.829Z,99104.75
2023-03-18T10:21:15.668Z,99104.50
2023-03-18T10:23:55.670Z,99104.56
2023-03-18T10:26:33.326Z,99109.63
2023-03-18T10:29:20.788Z,99105.66
2023-03-18T10:32:04.645Z,99118.03
2023-03-18T10:34:43.607Z,99116.84
2023-03-18T10:37:25.088Z,99102.44
2023-03-18T10:39:54.322Z,99103.75
2023-03-18T10:42:27.648Z,99103.81
2023-03-18T10:45:07.880Z,99103.66
2023-03-18T10:47:43.178Z,99104.91
2023-03-18T10:50:19.953Z,99099.50
2023-03-18T10:52:55.935Z,99083.75
2023-03-18T10:55:31.190Z,99082.34
2023-03-18T10:58:00.640Z,99089.06
2023-03-18T11:00:33.114Z,99086.75
2023-03-18T11:03:04.340Z,99101.59
2023-03-18T11:05:38.830Z,99093.66
2023-03-18T11:08:10.534Z,99093.81
2023-03-18T11:10:46.815Z,99094.03
2023-03-18T11:13:18.901Z,99090.47
2023-03-18T11:15:53.239Z,99083.75
2023-03-18T11:18:26.447Z,99079.34
2023-03-18T11:21:01.331Z,99083.56
2023-03-18T11:23:46.476Z,99083.13
2023-03-18T11:26:23.266Z,99080.59
2023-03-18T11:28:57.747Z,99075.00
2023-03-18T11:31:28.061Z,99073.91
2023-03-18T11:34:00.695Z,99070.94
2023-03-18T11:36:32.788Z,99064.88
2023-03-18T11:39:06.254Z,99070.13
2023-03-18T11:41:39.505Z,99072.47
2023-03-18T11:44:19.131Z,99072.91
2023-03-18T11:46:52.373Z,99073.38
2023-03-18T11:49:24.615Z,99073.34
2023-03-18T11:52:02.894Z,99070.19
2023-03-18T11:55:02.406Z,99074.22
2023-03-18T11:57:43.495Z,99064.38
2023-03-18T12:00:27.545Z,99068.25
2023-03-18T12:03:36.807Z,99068.50
2023-03-18T12:06:18.064Z,99057.09
2023-03-18T12:09:05.080Z,99060.19
2023-03-18T12:11:55.215Z,99045.72
2023-03-18T12:14:34.600Z,99058.00
2023-03-18T12:17:27.044Z,99053.22
2023-03-18T12:20:40.691Z,99040.13
2023-03-18T12:23:25.767Z,99039.25
2023-03-18T12:26:09.668Z,99038.38
2023-03-18T12:29:24.432Z,99039.81
2023-03-18T12:32:19.645Z,99036.53
2023-03-18T12:35:09.217Z,99034.50
2023-03-18T12:38:08.560Z,99034.63
2023-03-18T12:40:50.425Z,99028.38
2023-03-18T12:43:37.864Z,99031.78
2023-03-18T12:46:19.439Z,99028.81
2023-03-18T12:48:53.975Z,99031.13
2023-03-18T12:51:27.858Z,99025.50
2023-03-18T12:54:04.648Z,99019.88
2023-03-18T12:56:43.371Z,99018.44
2023-03-18T12:59:22.248Z,99013.09
2023-03-18T13:02:15.758Z,99015.72
2023-03-18T13:04:55.419Z,99020.78
2023-03-18T13:07:33.884Z,99022.78
2023-03-18T13:10:08.880Z,99022.44
2023-03-18T13:12:40.908Z,99025.53
2023-03-18T13:15:24.651Z,99013.50
2023-03-18T13:17:59.416Z,99023.13
2023-03-18T13:20:34.046Z,99020.25
2023-03-18T13:23:39.637Z,99013.66
2023-03-18T13:26:16.944Z,99017.78
2023-03-18T13:29:05.513Z,99009.75
2023-03-18T13:31:50.117Z,99017.03
2023-03-18T13:34:58.293Z,99020.41
2023-03-18T13:38:02.208Z,99010.22
2023-03-18T13:40:58.178Z,99013.78
2023-03-18T13:43:29.184Z,99007.72
2023-03-18T13:46:01.860Z,99014.09
2023-03-18T13:48:34.732Z,99017.13
2023-03-18T13:51:21.853Z,99018.31
2023-03-18T13:53:53.740Z,99014.25
2023-03-18T13:56:34.023Z,99007.97
2023-03-18T13:59:06.017Z,99009.19
2023-03-18T14:01:37.351Z,99012.72
2023-03-18T14:04:32.040Z,99010.75
2023-03-18T14:07:17.076Z,99005.25
2023-03-18T14:10:18.690Z,99007.69
2023-03-18T14:12:49.059Z,99002.25
2023-03-18T14:15:45.508Z,99009.19
2023-03-18T14:18:29.246Z,98996.88
2023-03-18T14:21:04.737Z,98996.09
2023-03-18T14:23:43.793Z,98989.38
2023-03-18T14:26:26.557Z,98993.66
2023-03-18T14:28:58.782Z,98997.19
2023-03-18T14:31:34.458Z,98997.78
2023-03-18T14:34:26.719Z,98989.47
2023-03-18T14:37:27.690Z,98998.28
2023-03-18T14:40:05.581Z,98981.47
2023-03-18T14:42:45.755Z,98979.41
2023-03-18T14:45:21.452Z,98990.06
2023-03-18T14:47:53.023Z,98985.34
2023-03-18T14:50:31.030Z,98986.72
2023-03-18T14:53:09.928Z,98979.66
2023-03-18T14:55:40.289Z,98985.50
2023-03-18T14:58:17.504Z,98986.09
2023-03-18T15:00:48.322Z,98982.97
2023-03-18T15:03:22.741Z,98981.72
2023-03-18T15:06:00.421Z,98989.41
2023-03-18T15:08:47.771Z,98985.81
2023-03-18T15:11:20.356Z,98985.59
2023-03-18T15:13:49.456Z,98986.97
2023-03-18T15:16:21.549Z,98986.47
2023-03-18T15:18:54.965Z,98974.19
2023-03-18T15:21:32.392Z,98976.13
2023-03-18T15:24:05.536Z,98974.34
2023-03-18T15:26:39.930Z,98974.94
2023-03-18T15:29:29.122Z,98979.97
2023-03-18T15:32:10.636Z,98971.38
2023-03-18T15:34:43.933Z,98974.59
2023-03-18T15:37:34.676Z,98978.59
2023-03-18T15:40:30.211Z,98967.34
2023-03-18T15:43:05.782Z,98967.34
2023-03-18T15:45:58.728Z,98970.56
2023-03-18T15:48:37.617Z,98961.38
2023-03-18T15:51:11.136Z,98967.72
2023-03-18T15:53:43.267Z,98967.22
2023-03-18T15:56:27.593Z,98959.31
2023-03-18T15:59:06.420Z,98951.69
2023-03-18T16:01:36.401Z,98960.66
2023-03-18T16:04:10.531Z,98957.25
2023-03-18T16:06:40.467Z,98973.06
2023-03-18T16:09:18.326Z,98957.81
2023-03-18T16:11:53.670Z,98960.75
2023-03-18T16:14:27.348Z,98963.66
2023-03-18T16:16:56.399Z,98959.75
2023-03-18T16:19:28.743Z,98967.19
2023-03-18T16:21:59.845Z,98963.25
2023-03-18T16:24:29.343Z,98964.31
2023-03-18T16:27:00.392Z,98965.41
2023-03-18T16:29:33.007Z,98969.09
2023-03-18T16:32:02.264Z,98961.78
2023-03-18T16:34:32.186Z,98971.00
2023-03-18T16:37:01.824Z,98969.69
2023-03-18T16:39:36.218Z,98974.34
2023-03-18T16:42:08.122Z,98975.38
2023-03-18T16:44:38.208Z,98972.22
2023-03-18T16:47:07.884Z,98969.69
2023-03-18T16:49:38.776Z,98980.38
2023-03-18T16:52:07.981Z,98985.78
2023-03-18T16:54:37.477Z,98989.59
2023-03-18T16:57:15.607Z,98994.53
2023-03-18T16:59:49.245Z,98998.09
2023-03-18T17:02:33.342Z,98998.03
2023-03-18T17:05:03.130Z,98999.19
2023-03-18T17:07:33.972Z,98996.19
2023-03-18T17:10:08.994Z,99001.84
2023-03-18T17:12:41.358Z,99003.78
2023-03-18T17:15:13.256Z,99002.28
2023-03-18T17:17:42.197Z,99008.44
2023-03-18T17:20:21.019Z,99005.09
2023-03-18T17:22:50.148Z,99015.44
2023-03-18T17:25:22.924Z,99014.19
2023-03-18T17:27:57.064Z,99019.75
2023-03-18T17:30:32.671Z,99026.91
2023-03-18T17:33:05.977Z,99028.53
2023-03-18T17:35:37.240Z,99034.13
2023-03-18T17:38:06.160Z,99025.50
2023-03-18T17:40:35.226Z,99031.78
2023-03-18T17:43:05.808Z,99031.06
2023-03-18T17:45:36.658Z,99035.56
2023-03-18T17:48:17.975Z,99034.03
2023-03-18T17:50:48.535Z,99035.38
2023-03-18T17:53:27.920Z,99041.41
2023-03-18T17:55:57.384Z,99038.31
2023-03-18T17:58:33.210Z,99031.81
2023-03-18T18:01:08.304Z,99036.81
2023-03-18T18:03:40.449Z,99037.88
2023-03-18T18:06:12.981Z,99042.88
2023-03-18T18:08:41.970Z,99036.09
2023-03-18T18:11:18.932Z,99042.13
2023-03-18T18:13:50.409Z,99037.97
2023-03-18T18:16:20.227Z,99037.47
2023-03-18T18:18:50.136Z,99040.09
2023-03-18T18:21:22.764Z,99037.25
2023-03-18T18:23:52.419Z,99046.44
2023-03-18T18:26:23.407Z,99053.78
2023-03-18T18:28:54.318Z,99050.91
2023-03-18T18:31:28.182Z,99043.31
2023-03-18T18:33:57.334Z,99048.31
2023-03-18T18:36:28.207Z,99042.03
2023-03-18T18:38:57.275Z,99042.81
2023-03-18T18:41:27.349Z,99045.97
2023-03-18T18:43:57.736Z,99049.91
2023-03-18T18:46:28.193Z,99050.69
2023-03-18T18:48:57.215Z,99054.09
2023-03-18T18:51:27.172Z,99057.50
2023-03-18T18:53:56.822Z,99059.63
2023-03-18T18:56:35.386Z,99072.69
2023-03-18T18:59:22.308Z,99066.44
2023-03-18T19:01:52.839Z,99059.34
2023-03-18T19:04:22.819Z,99058.84
2023-03-18T19:06:55.762Z,99058.06
2023-03-18T19:09:27.032Z,99063.31
2023-03-18T19:11:57.053Z,99066.69
2023-03-18T19:14:29.485Z,99069.00
2023-03-18T19:16:59.909Z,99077.38
2023-03-18T19:19:31.246Z,99071.91
2023-03-18T19:22:00.462Z,99075.28
2023-03-18T19:24:31.530Z,99077.38
2023-03-18T19:27:03.301Z,99072.69
2023-03-18T19:29:38.701Z,99076.59
2023-03-18T19:32:08.355Z,99076.09
2023-03-18T19:34:37.841Z,99081.03
2023-03-18T19:37:08.306Z,99088.38
2023-03-18T19:39:38.202Z,99075.81
2023-03-18T19:42:07.432Z,99085.75
2023-03-18T19:44:41.306Z,99085.22
2023-03-18T19:47:18.406Z,99089.91
2023-03-18T19:49:47.995Z,99097.50
2023-03-18T19:52:23.161Z,99092.81
2023-03-18T19:54:53.716Z,99091.47
2023-03-18T19:57:27.432Z,99095.13
2023-03-18T20:00:00.823Z,99096.44
2023-03-18T20:02:32.623Z,99092.53
2023-03-18T20:05:06.417Z,99092.78
2023-03-18T20:07:35.535Z,99094.06
2023-03-18T20:10:04.902Z,99096.16
2023-03-18T20:12:37.883Z,99102.69
2023-03-18T20:15:14.947Z,99109.47
2023-03-18T20:17:45.862Z,99102.16
2023-03-18T20:20:18.038Z,99106.31
2023-03-18T20:22:52.032Z,99098.44
2023-03-18T20:25:25.281Z,99103.94
2023-03-18T20:27:56.745Z,99109.41
2023-03-18T20:30:33.966Z,99114.91
2023-03-18T20:33:04.539Z,99108.13
2023-03-18T20:35:36.896Z,99124.06
2023-03-18T20:38:17.290Z,99110.41
2023-03-18T20:40:48.945Z,99118.75
2023-03-18T20:43:19.872Z,99119.00
2023-03-18T20:45:51.521Z,99114.81
2023-03-18T20:48:21.057Z,99119.50
2023-03-18T20:50:51.250Z,99115.59
2023-03-18T20:53:27.330Z,99119.50
2023-03-18T20:55:56.554Z,99120.81
2023-03-18T20:58:28.551Z,99119.22
2023-03-18T21:01:01.904Z,99116.09
2023-03-18T21:03:33.490Z,99124.19
2023-03-18T21:06:04.493Z,99121.03
2023-03-18T21:08:34.671Z,99123.13
2023-03-18T21:11:04.754Z,99126.75
2023-03-18T21:13:38.610Z,99124.41
2023-03-18T21:16:15.786Z,99124.91
2023-03-18T21:18:47.740Z,99125.94
2023-03-18T21:21:23.504Z,99123.59
2023-03-18T21:23:54.961Z,99120.44
2023-03-18T21:26:24.987Z,99124.13
2023-03-18T21:28:53.980Z,99130.34
2023-03-18T21:31:28.518Z,99126.19
2023-03-18T21:33:57.557Z,99125.63
2023-03-18T21:36:27.140Z,99122.25
2023-03-18T21:38:56.294Z,99114.66
2023-03-18T21:41:30.270Z,99123.53
2023-03-18T21:44:00.091Z,99123.53
2023-03-18T21:46:30.932Z,99128.22
2023-03-18T21:48:59.958Z,99132.91
2023-03-18T21:51:39.010Z,99136.81
2023-03-18T21:54:17.972Z,99139.94
2023-03-18T21:56:47.060Z,99154.28
2023-03-18T21:59:16.122Z,99140.69
2023-03-18T22:01:46.562Z,99145.38
2023-03-18T22:04:15.739Z,99136.75
2023-03-18T22:06:47.969Z,99151.09
2023-03-18T22:09:16.907Z,99145.88
2023-03-18T22:11:45.919Z,99145.34
2023-03-18T22:14:15.304Z,99139.34
2023-03-18T22:16:45.715Z,99144.81
2023-03-18T22:19:14.677Z,99139.06
2023-03-18T22:21:43.782Z,99141.91
2023-03-18T22:24:15.674Z,99135.91
2023-03-18T22:26:44.645Z,99133.81
2023-03-18T22:29:13.632Z,99133.25
2023-03-18T22:31:44.920Z,99130.09
2023-03-18T22:34:23.629Z,99129.31
2023-03-18T22:36:52.664Z,99131.63
2023-03-18T22:39:21.623Z,99131.13
2023-03-18T22:41:50.640Z,99134.75
2023-03-18T22:44:23.965Z,99135.25
2023-03-18T22:46:54.356Z,99141.75
2023-03-18T22:49:23.308Z,99139.41
2023-03-18T22:51:52.298Z,99139.63
2023-03-18T22:54:23.851Z,99145.88
2023-03-18T22:56:52.817Z,99150.03
2023-03-18T22:59:21.887Z,99150.28
2023-03-18T23:01:50.900Z,99148.41
2023-03-18T23:04:21.261Z,99157.28
2023-03-18T23:06:50.582Z,99161.19
2023-03-18T23:09:19.602Z,99172.88
2023-03-18T23:11:48.529Z,99173.38
2023-03-18T23:14:17.518Z,99174.66
2023-03-18T23:16:46.482Z,99178.81
2023-03-18T23:19:15.466Z,99169.91
2023-03-18T23:21:45.943Z,99175.38
2023-03-18T23:24:15.616Z,99179.50
2023-03-18T23:26:44.609Z,99181.81
2023-03-18T23:29:13.604Z,99179.44
2023-03-18T23:31:42.652Z,99179.94
2023-03-18T23:34:14.423Z,99181.78
2023-03-18T23:36:45.610Z,99178.59
2023-03-18T23:39:14.677Z,99172.31
2023-03-18T23:41:44.291Z,99172.56
2023-03-18T23:44:13.700Z,99176.44
2023-03-18T23:46:44.106Z,99183.72
2023-03-18T23:49:14.504Z,99185.78
2023-03-18T23:51:45.844Z,99182.63
2023-03-18T23:54:15.904Z,99173.47
2023-03-18T23:56:45.270Z,99182.31
2023-03-18T23:59:15.666Z,99182.59
